createdAt,value
2022-09-12T00:01:42.268Z,11.99
2022-09-12T00:04:11.497Z,11.95
2022-09-12T00:06:41.582Z,11.92
2022-09-12T00:09:11.192Z,11.90
2022-09-12T00:11:40.055Z,11.87
2022-09-12T00:14:11.971Z,11.83
2022-09-12T00:16:40.271Z,11.79
2022-09-12T00:19:09.736Z,11.85
2022-09-12T00:21:38.586Z,11.89
2022-09-12T00:24:06.971Z,11.93
2022-09-12T00:26:35.309Z,11.86
2022-09-12T00:29:03.599Z,11.89
2022-09-12T00:31:31.674Z,12.14
2022-09-12T00:34:01.529Z,12.15
2022-09-12T00:36:31.613Z,12.13
2022-09-12T00:38:59.706Z,12.17
2022-09-12T00:41:29.245Z,12.01
2022-09-12T00:43:58.348Z,11.90
2022-09-12T00:46:28.973Z,11.75
2022-09-12T00:49:00.279Z,11.62
2022-09-12T00:51:30.463Z,11.63
2022-09-12T00:54:01.081Z,11.84
2022-09-12T00:56:29.832Z,11.53
2022-09-12T00:59:02.354Z,11.55
2022-09-12T01:01:33.076Z,11.42
2022-09-12T01:04:03.737Z,11.29
2022-09-12T01:06:35.621Z,11.36
2022-09-12T01:09:05.510Z,11.46
2022-09-12T01:11:35.362Z,11.50
2022-09-12T01:14:07.323Z,11.53
2022-09-12T01:16:36.676Z,11.44
2022-09-12T01:19:12.655Z,11.47
2022-09-12T01:21:46.694Z,11.54
2022-09-12T01:24:43.478Z,11.37
2022-09-12T01:27:27.655Z,11.63
2022-09-12T01:30:07.050Z,11.36
2022-09-12T01:32:41.260Z,11.23
2022-09-12T01:35:16.719Z,11.35
2022-09-12T01:37:48.876Z,11.47
2022-09-12T01:40:23.262Z,11.63
2022-09-12T01:42:54.663Z,11.77
2022-09-12T01:45:25.620Z,11.67
2022-09-12T01:47:59.985Z,11.62
2022-09-12T01:50:31.083Z,11.57
2022-09-12T01:53:01.015Z,11.61
2022-09-12T01:55:33.536Z,11.43
2022-09-12T01:58:05.484Z,11.34
2022-09-12T02:00:35.422Z,11.28
2022-09-12T02:03:10.283Z,11.47
2022-09-12T02:05:42.144Z,11.46
2022-09-12T02:08:14.898Z,11.42
2022-09-12T02:10:44.999Z,11.50
2022-09-12T02:13:16.047Z,11.37
2022-09-12T02:15:45.555Z,11.40
2022-09-12T02:18:17.998Z,11.41
2022-09-12T02:20:49.137Z,11.48
2022-09-12T02:23:20.497Z,11.35
2022-09-12T02:25:49.888Z,11.30
2022-09-12T02:28:19.763Z,11.26
2022-09-12T02:30:51.759Z,11.26
2022-09-12T02:33:26.596Z,11.06
2022-09-12T02:35:59.445Z,10.84
2022-09-12T02:38:29.186Z,10.75
2022-09-12T02:40:57.604Z,11.01
2022-09-12T02:43:25.647Z,10.98
2022-09-12T02:45:54.076Z,11.16
2022-09-12T02:48:25.188Z,11.30
2022-09-12T02:50:53.229Z,11.10
2022-09-12T02:53:21.438Z,10.79
2022-09-12T02:55:49.575Z,10.70
2022-09-12T02:58:19.151Z,10.65
2022-09-12T03:00:50.279Z,10.90
2022-09-12T03:03:30.920Z,10.96
2022-09-12T03:06:00.035Z,10.97
2022-09-12T03:08:38.762Z,11.10
2022-09-12T03:11:23.792Z,11.03
2022-09-12T03:13:58.772Z,10.93
2022-09-12T03:16:29.171Z,10.95
2022-09-12T03:19:04.256Z,11.63
2022-09-12T03:21:34.860Z,10.87
2022-09-12T03:24:14.700Z,10.71
2022-09-12T03:26:45.535Z,10.52
2022-09-12T03:29:15.022Z,10.67
2022-09-12T03:31:49.650Z,10.49
2022-09-12T03:34:19.403Z,10.39
2022-09-12T03:36:47.617Z,10.40
2022-09-12T03:39:15.982Z,10.62
2022-09-12T03:41:43.993Z,10.40
2022-09-12T03:44:11.951Z,10.48
2022-09-12T03:46:39.898Z,10.25
2022-09-12T03:49:07.839Z,10.16
2022-09-12T03:51:37.187Z,10.27
2022-09-12T03:54:05.602Z,10.12
2022-09-12T03:56:33.540Z,9.98
2022-09-12T03:59:01.552Z,9.67
2022-09-12T04:01:29.594Z,9.82
2022-09-12T04:03:57.695Z,10.22
2022-09-12T04:06:25.687Z,10.03
2022-09-12T04:08:55.450Z,9.78
2022-09-12T04:11:23.797Z,9.81
2022-09-12T04:13:51.918Z,9.75
2022-09-12T04:16:20.180Z,9.70
2022-09-12T04:18:50.465Z,9.69
2022-09-12T04:21:20.093Z,9.77
2022-09-12T04:23:48.139Z,9.52
2022-09-12T04:26:18.230Z,9.47
2022-09-12T04:28:47.076Z,9.47
2022-09-12T04:31:19.977Z,9.62
2022-09-12T04:33:48.187Z,9.68
2022-09-12T04:36:17.561Z,9.58
2022-09-12T04:38:48.282Z,9.60
2022-09-12T04:41:19.000Z,9.88
2022-09-12T04:43:47.361Z,9.65
2022-09-12T04:46:19.769Z,9.66
2022-09-12T04:48:48.236Z,9.70
2022-09-12T04:51:20.881Z,9.78
2022-09-12T04:53:49.439Z,9.50
2022-09-12T04:56:19.231Z,9.47
2022-09-12T04:58:47.562Z,9.47
2022-09-12T05:01:16.972Z,9.81
2022-09-12T05:03:46.257Z,9.57
2022-09-12T05:06:15.251Z,9.64
2022-09-12T05:08:43.586Z,9.46
2022-09-12T05:11:15.345Z,9.80
2022-09-12T05:13:44.744Z,9.99
2022-09-12T05:16:15.197Z,9.92
2022-09-12T05:18:44.175Z,9.90
2022-09-12T05:21:13.284Z,9.74
2022-09-12T05:23:41.571Z,9.81
2022-09-12T05:26:12.203Z,9.74
2022-09-12T05:28:40.929Z,9.93
2022-09-12T05:31:12.399Z,9.93
2022-09-12T05:33:41.627Z,9.81
2022-09-12T05:36:11.620Z,9.97
2022-09-12T05:38:40.029Z,10.23
2022-09-12T05:41:14.641Z,10.31
2022-09-12T05:43:45.838Z,10.35
2022-09-12T05:46:16.699Z,10.54
2022-09-12T05:48:45.683Z,11.18
2022-09-12T05:51:17.470Z,11.05
2022-09-12T05:53:46.214Z,10.73
2022-09-12T05:56:15.049Z,12.00
2022-09-12T05:58:44.049Z,15.44
2022-09-12T06:01:13.517Z,17.97
2022-09-12T06:03:44.453Z,19.46
2022-09-12T06:06:13.648Z,20.49
2022-09-12T06:08:42.758Z,18.43
2022-09-12T06:11:11.739Z,15.28
2022-09-12T06:13:40.976Z,15.80
2022-09-12T06:16:10.407Z,13.38
2022-09-12T06:18:41.639Z,13.28
2022-09-12T06:21:11.748Z,12.86
2022-09-12T06:23:40.089Z,12.72
2022-09-12T06:26:09.048Z,12.74
2022-09-12T06:28:38.101Z,13.02
2022-09-12T06:31:06.916Z,13.75
2022-09-12T06:33:35.486Z,13.73
2022-09-12T06:36:10.227Z,13.57
2022-09-12T06:38:41.713Z,13.64
2022-09-12T06:41:11.367Z,13.67
2022-09-12T06:43:42.475Z,13.74
2022-09-12T06:46:11.273Z,13.73
2022-09-12T06:48:41.952Z,13.54
2022-09-12T06:51:11.668Z,13.54
2022-09-12T06:53:41.562Z,13.54
2022-09-12T06:56:11.176Z,13.75
2022-09-12T06:58:39.741Z,13.95
2022-09-12T07:01:09.464Z,14.03
2022-09-12T07:03:38.654Z,14.28
2022-09-12T07:06:07.600Z,14.43
2022-09-12T07:08:37.042Z,14.38
2022-09-12T07:11:14.330Z,14.40
2022-09-12T07:13:43.421Z,14.42
2022-09-12T07:16:16.014Z,15.00
2022-09-12T07:18:51.378Z,14.87
2022-09-12T07:21:19.821Z,14.76
2022-09-12T07:23:48.040Z,14.99
2022-09-12T07:26:17.923Z,14.55
2022-09-12T07:28:45.987Z,14.75
2022-09-12T07:31:16.333Z,14.69
2022-09-12T07:33:44.969Z,15.15
2022-09-12T07:36:14.138Z,15.25
2022-09-12T07:38:42.466Z,15.36
2022-09-12T07:41:13.903Z,15.83
2022-09-12T07:43:43.327Z,15.67
2022-09-12T07:46:11.680Z,15.81
2022-09-12T07:48:40.935Z,16.05
2022-09-12T07:51:10.185Z,16.12
2022-09-12T07:53:39.132Z,16.14
2022-09-12T07:56:08.229Z,16.29
2022-09-12T07:58:40.348Z,16.29
2022-09-12T08:01:10.837Z,15.82
2022-09-12T08:03:38.876Z,16.13
2022-09-12T08:06:07.301Z,16.08
2022-09-12T08:08:35.423Z,16.53
2022-09-12T08:11:05.913Z,16.43
2022-09-12T08:13:34.781Z,16.90
2022-09-12T08:16:04.019Z,16.93
2022-09-12T08:18:33.790Z,17.32
2022-09-12T08:21:02.446Z,17.36
2022-09-12T08:23:33.519Z,17.07
2022-09-12T08:26:05.919Z,17.00
2022-09-12T08:28:35.572Z,17.21
2022-09-12T08:31:04.058Z,16.96
2022-09-12T08:33:34.065Z,17.20
2022-09-12T08:36:06.369Z,17.08
2022-09-12T08:38:34.509Z,17.21
2022-09-12T08:41:05.766Z,17.26
2022-09-12T08:43:41.515Z,17.90
2022-09-12T08:46:13.062Z,18.15
2022-09-12T08:48:43.847Z,18.11
2022-09-12T08:51:14.357Z,18.29
2022-09-12T08:53:43.555Z,18.51
2022-09-12T08:56:12.769Z,18.49
2022-09-12T08:58:42.101Z,18.58
2022-09-12T09:01:15.572Z,18.72
2022-09-12T09:03:54.714Z,19.01
2022-09-12T09:06:28.667Z,19.03
2022-09-12T09:09:04.872Z,19.34
2022-09-12T09:11:40.072Z,19.12
2022-09-12T09:14:45.364Z,19.29
2022-09-12T09:17:16.347Z,19.33
2022-09-12T09:19:50.869Z,19.32
2022-09-12T09:22:27.086Z,19.94
2022-09-12T09:25:00.035Z,19.68
2022-09-12T09:27:40.398Z,20.14
2022-09-12T09:30:15.331Z,19.88
2022-09-12T09:32:44.164Z,20.22
2022-09-12T09:35:19.493Z,19.96
2022-09-12T09:37:58.607Z,19.78
2022-09-12T09:40:30.600Z,20.36
2022-09-12T09:43:02.157Z,20.36
2022-09-12T09:45:30.248Z,20.43
2022-09-12T09:47:59.179Z,20.19
2022-09-12T09:50:28.651Z,20.57
2022-09-12T09:52:59.153Z,20.97
2022-09-12T09:55:29.534Z,20.79
2022-09-12T09:57:57.518Z,21.16
2022-09-12T10:00:30.581Z,21.22
2022-09-12T10:03:11.316Z,21.16
2022-09-12T10:05:47.944Z,20.98
2022-09-12T10:08:20.968Z,21.84
2022-09-12T10:10:56.102Z,21.94
2022-09-12T10:13:26.216Z,21.53
2022-09-12T10:15:58.543Z,21.34
2022-09-12T10:18:37.019Z,21.46
2022-09-12T10:21:16.315Z,21.98
2022-09-12T10:23:44.795Z,21.19
2022-09-12T10:26:14.010Z,21.34
2022-09-12T10:28:43.332Z,21.03
2022-09-12T10:31:15.678Z,21.31
2022-09-12T10:33:52.609Z,21.34
2022-09-12T10:36:23.560Z,21.52
2022-09-12T10:38:52.597Z,21.92
2022-09-12T10:41:21.797Z,22.20
2022-09-12T10:43:50.232Z,22.48
2022-09-12T10:46:23.208Z,22.04
2022-09-12T10:48:52.059Z,21.92
2022-09-12T10:51:29.555Z,22.00
2022-09-12T10:54:02.404Z,22.49
2022-09-12T10:56:32.558Z,22.51
2022-09-12T10:59:09.343Z,21.90
2022-09-12T11:01:40.181Z,22.04
2022-09-12T11:04:20.582Z,22.21
2022-09-12T11:06:56.187Z,22.15
2022-09-12T11:09:28.575Z,22.32
2022-09-12T11:12:03.185Z,22.45
2022-09-12T11:14:38.792Z,23.05
2022-09-12T11:17:16.649Z,22.48
2022-09-12T11:19:51.349Z,22.26
2022-09-12T11:22:27.701Z,22.76
2022-09-12T11:25:15.857Z,23.02
2022-09-12T11:27:50.646Z,22.91
2022-09-12T11:30:19.162Z,22.60
2022-09-12T11:32:53.292Z,22.32
2022-09-12T11:35:25.678Z,23.11
2022-09-12T11:38:12.648Z,22.54
2022-09-12T11:40:44.228Z,22.46
2022-09-12T11:43:24.623Z,23.24
2022-09-12T11:45:53.561Z,22.85
2022-09-12T11:48:28.439Z,23.33
2022-09-12T11:50:56.778Z,23.23
2022-09-12T11:53:30.260Z,23.29
2022-09-12T11:56:01.879Z,23.24
2022-09-12T11:58:30.231Z,23.11
2022-09-12T12:01:00.172Z,22.96
2022-09-12T12:03:33.102Z,23.10
2022-09-12T12:06:04.097Z,22.86
2022-09-12T12:08:34.161Z,23.07
2022-09-12T12:11:02.967Z,23.49
2022-09-12T12:13:32.721Z,23.46
2022-09-12T12:16:04.141Z,23.00
2022-09-12T12:18:33.064Z,22.88
2022-09-12T12:21:19.923Z,23.53
2022-09-12T12:24:03.608Z,23.77
2022-09-12T12:26:45.615Z,23.51
2022-09-12T12:29:14.208Z,24.01
2022-09-12T12:32:08.697Z,23.75
2022-09-12T12:34:37.737Z,23.83
2022-09-12T12:37:20.579Z,23.80
2022-09-12T12:40:02.719Z,23.31
2022-09-12T12:43:06.001Z,23.77
2022-09-12T12:45:48.855Z,24.03
2022-09-12T12:48:20.284Z,24.06
2022-09-12T12:50:48.725Z,24.01
2022-09-12T12:53:20.097Z,23.36
2022-09-12T12:55:50.190Z,23.70
2022-09-12T12:58:28.347Z,24.21
2022-09-12T13:01:05.770Z,23.76
2022-09-12T13:03:35.515Z,24.24
2022-09-12T13:06:04.623Z,24.35
2022-09-12T13:08:33.985Z,24.75
2022-09-12T13:11:04.101Z,24.96
2022-09-12T13:13:35.263Z,24.62
2022-09-12T13:16:03.632Z,24.23
2022-09-12T13:18:40.801Z,23.86
2022-09-12T13:21:11.767Z,24.31
2022-09-12T13:23:39.892Z,24.59
2022-09-12T13:26:12.264Z,24.02
2022-09-12T13:28:40.407Z,24.81
2022-09-12T13:31:11.807Z,24.30
2022-09-12T13:33:42.422Z,24.31
2022-09-12T13:36:28.061Z,24.76
2022-09-12T13:39:08.578Z,24.83
2022-09-12T13:41:41.151Z,24.51
2022-09-12T13:44:10.885Z,24.24
2022-09-12T13:46:39.001Z,24.60
2022-09-12T13:49:17.386Z,24.77
2022-09-12T13:51:45.406Z,24.60
2022-09-12T13:54:22.503Z,24.50
2022-09-12T13:56:52.418Z,24.58
2022-09-12T13:59:20.639Z,24.44
2022-09-12T14:01:49.206Z,24.49
2022-09-12T14:04:36.063Z,24.39
2022-09-12T14:07:11.247Z,24.86
2022-09-12T14:09:41.743Z,24.73
2022-09-12T14:12:22.115Z,24.93
2022-09-12T14:14:51.682Z,24.69
2022-09-12T14:17:23.665Z,24.50
2022-09-12T14:19:52.591Z,25.00
2022-09-12T14:22:23.454Z,24.92
2022-09-12T14:24:55.850Z,24.55
2022-09-12T14:27:25.680Z,24.87
2022-09-12T14:29:57.178Z,24.57
2022-09-12T14:32:25.620Z,24.78
2022-09-12T14:35:05.488Z,24.99
2022-09-12T14:37:33.504Z,24.75
2022-09-12T14:40:03.608Z,24.92
2022-09-12T14:42:32.554Z,24.70
2022-09-12T14:45:03.527Z,24.71
2022-09-12T14:47:38.418Z,24.31
2022-09-12T14:50:15.950Z,24.58
2022-09-12T14:52:44.056Z,24.42
2022-09-12T14:55:28.526Z,24.70
2022-09-12T14:58:08.263Z,24.78
2022-09-12T15:00:36.541Z,24.70
2022-09-12T15:03:21.137Z,24.74
2022-09-12T15:05:49.676Z,24.75
2022-09-12T15:08:19.935Z,24.51
2022-09-12T15:10:49.489Z,24.74
2022-09-12T15:13:19.346Z,24.55
2022-09-12T15:15:48.606Z,24.50
2022-09-12T15:18:16.999Z,24.37
2022-09-12T15:20:46.135Z,24.70
2022-09-12T15:23:19.991Z,24.54
2022-09-12T15:25:50.779Z,24.94
2022-09-12T15:28:21.589Z,24.78
2022-09-12T15:30:51.245Z,24.50
2022-09-12T15:33:20.902Z,24.74
2022-09-12T15:35:48.871Z,24.75
2022-09-12T15:38:17.200Z,24.48
2022-09-12T15:40:46.439Z,24.55
2022-09-12T15:43:15.846Z,24.66
2022-09-12T15:45:44.859Z,24.58
2022-09-12T15:48:15.195Z,24.47
2022-09-12T15:50:43.487Z,24.61
2022-09-12T15:53:14.943Z,24.72
2022-09-12T15:55:43.595Z,24.40
2022-09-12T15:58:11.765Z,24.58
2022-09-12T16:00:41.171Z,24.66
2022-09-12T16:03:18.634Z,24.49
2022-09-12T16:05:46.693Z,24.32
2022-09-12T16:08:15.334Z,24.54
2022-09-12T16:10:44.490Z,24.63
2022-09-12T16:13:12.597Z,24.35
2022-09-12T16:15:41.962Z,24.22
2022-09-12T16:18:09.963Z,24.29
2022-09-12T16:20:40.156Z,24.27
2022-09-12T16:23:08.275Z,23.99
2022-09-12T16:25:37.498Z,23.95
2022-09-12T16:28:05.710Z,23.88
2022-09-12T16:30:34.002Z,23.94
2022-09-12T16:33:03.434Z,23.87
2022-09-12T16:35:32.167Z,23.78
2022-09-12T16:38:00.326Z,23.55
2022-09-12T16:40:31.058Z,23.31
2022-09-12T16:42:59.061Z,23.44
2022-09-12T16:45:27.063Z,23.41
2022-09-12T16:47:55.496Z,23.28
2022-09-12T16:50:25.097Z,23.36
2022-09-12T16:52:53.082Z,23.37
2022-09-12T16:55:22.252Z,22.85
2022-09-12T16:57:50.566Z,22.94
2022-09-12T17:00:18.689Z,22.89
2022-09-12T17:02:47.323Z,22.73
2022-09-12T17:05:15.810Z,22.65
2022-09-12T17:07:47.516Z,22.71
2022-09-12T17:10:15.699Z,22.73
2022-09-12T17:12:43.662Z,22.56
2022-09-12T17:15:11.706Z,22.54
2022-09-12T17:17:39.695Z,22.41
2022-09-12T17:20:07.936Z,22.23
2022-09-12T17:22:38.205Z,22.15
2022-09-12T17:25:08.451Z,22.06
2022-09-12T17:27:36.535Z,22.11
2022-09-12T17:30:07.615Z,22.09
2022-09-12T17:32:35.646Z,22.08
2022-09-12T17:35:03.843Z,21.85
2022-09-12T17:37:33.629Z,21.81
2022-09-12T17:40:02.183Z,21.63
2022-09-12T17:42:31.597Z,21.57
2022-09-12T17:44:59.659Z,21.47
2022-09-12T17:47:30.424Z,21.42
2022-09-12T17:50:27.384Z,21.36
2022-09-12T17:52:47.146Z,21.42
2022-09-12T17:55:15.392Z,21.44
2022-09-12T17:57:47.085Z,21.46
2022-09-12T18:00:15.358Z,21.34
2022-09-12T18:02:43.033Z,21.30
2022-09-12T18:05:15.170Z,21.24
2022-09-12T18:07:44.277Z,21.24
2022-09-12T18:10:12.379Z,21.25
2022-09-12T18:12:40.779Z,21.14
2022-09-12T18:15:12.503Z,21.06
2022-09-12T18:17:40.855Z,21.10
2022-09-12T18:20:09.444Z,20.97
2022-09-12T18:22:37.566Z,20.79
2022-09-12T18:25:06.011Z,20.55
2022-09-12T18:27:34.006Z,20.22
2022-09-12T18:30:20.685Z,20.19
2022-09-12T18:32:50.916Z,19.88
2022-09-12T18:35:18.962Z,19.84
2022-09-12T18:37:46.922Z,19.62
2022-09-12T18:40:15.586Z,19.64
2022-09-12T18:42:46.028Z,19.06
2022-09-12T18:45:14.152Z,19.10
2022-09-12T18:47:44.679Z,18.68
2022-09-12T18:50:14.140Z,18.51
2022-09-12T18:52:42.364Z,18.62
2022-09-12T18:55:11.047Z,18.37
2022-09-12T18:57:41.032Z,18.26
2022-09-12T19:00:12.481Z,18.07
2022-09-12T19:02:40.731Z,18.26
2022-09-12T19:05:08.967Z,18.31
2022-09-12T19:07:38.324Z,18.22
2022-09-12T19:10:06.741Z,17.99
2022-09-12T19:12:34.743Z,17.93
2022-09-12T19:15:03.880Z,17.51
2022-09-12T19:17:31.877Z,17.78
2022-09-12T19:19:59.877Z,17.79
2022-09-12T19:22:28.182Z,17.64
2022-09-12T19:24:57.518Z,17.49
2022-09-12T19:27:25.550Z,17.62
2022-09-12T19:29:53.535Z,17.51
2022-09-12T19:32:21.506Z,17.40
2022-09-12T19:34:49.470Z,17.28
2022-09-12T19:37:18.006Z,17.06
2022-09-12T19:39:46.211Z,16.98
2022-09-12T19:42:15.613Z,16.78
2022-09-12T19:44:43.607Z,16.89
2022-09-12T19:47:11.587Z,16.71
2022-09-12T19:49:41.938Z,16.74
2022-09-12T19:52:09.935Z,16.77
2022-09-12T19:54:38.142Z,16.52
2022-09-12T19:57:06.108Z,16.57
2022-09-12T19:59:35.656Z,16.70
2022-09-12T20:02:03.934Z,16.59
2022-09-12T20:04:32.970Z,16.56
2022-09-12T20:07:00.961Z,16.55
2022-09-12T20:09:28.975Z,16.27
2022-09-12T20:11:56.963Z,16.28
2022-09-12T20:14:24.990Z,16.25
2022-09-12T20:16:54.355Z,16.31
2022-09-12T20:19:22.585Z,16.12
2022-09-12T20:21:50.580Z,16.23
2022-09-12T20:24:18.556Z,16.04
2022-09-12T20:26:49.203Z,15.88
2022-09-12T20:29:17.203Z,15.94
2022-09-12T20:31:45.208Z,15.94
2022-09-12T20:34:16.600Z,15.81
2022-09-12T20:36:44.979Z,15.68
2022-09-12T20:39:14.587Z,15.72
2022-09-12T20:41:42.685Z,15.10
2022-09-12T20:44:10.938Z,15.20
2022-09-12T20:46:41.710Z,15.42
2022-09-12T20:49:09.966Z,15.50
2022-09-12T20:51:39.465Z,15.40
2022-09-12T20:54:08.081Z,15.40
2022-09-12T20:56:37.139Z,15.44
2022-09-12T20:59:07.515Z,15.37
2022-09-12T21:01:35.579Z,15.20
2022-09-12T21:04:03.845Z,15.29
2022-09-12T21:06:32.291Z,15.31
2022-09-12T21:09:01.617Z,15.34
2022-09-12T21:11:29.724Z,15.19
2022-09-12T21:13:57.929Z,15.24
2022-09-12T21:16:26.243Z,15.23
2022-09-12T21:18:55.097Z,15.06
2022-09-12T21:21:23.098Z,15.12
2022-09-12T21:23:51.624Z,15.07
2022-09-12T21:26:21.004Z,14.72
2022-09-12T21:28:49.379Z,14.84
2022-09-12T21:31:19.890Z,14.95
2022-09-12T21:33:51.315Z,14.62
2022-09-12T21:36:19.300Z,14.96
2022-09-12T21:38:47.264Z,14.68
2022-09-12T21:41:18.315Z,14.90
2022-09-12T21:43:47.887Z,14.81
2022-09-12T21:46:18.518Z,14.68
2022-09-12T21:48:46.536Z,14.68
2022-09-12T21:51:14.515Z,14.79
2022-09-12T21:53:42.557Z,14.71
2022-09-12T21:56:10.603Z,14.43
2022-09-12T21:58:39.191Z,14.14
2022-09-12T22:02:38.579Z,14.46
2022-09-12T22:05:07.616Z,14.58
2022-09-12T22:07:36.534Z,14.64
2022-09-12T22:10:05.756Z,14.24
2022-09-12T22:12:34.290Z,14.41
2022-09-12T22:15:17.433Z,14.32
2022-09-12T22:17:52.627Z,14.66
2022-09-12T22:20:20.872Z,14.12
2022-09-12T22:23:06.634Z,14.27
2022-09-12T22:25:34.932Z,14.09
2022-09-12T22:28:03.519Z,14.02
2022-09-12T22:30:32.339Z,14.21
2022-09-12T22:33:01.934Z,13.97
2022-09-12T22:35:30.866Z,13.96
2022-09-12T22:38:01.533Z,13.95
2022-09-12T22:40:29.766Z,13.61
2022-09-12T22:42:58.388Z,13.86
2022-09-12T22:45:28.992Z,13.95
2022-09-12T22:48:00.563Z,13.90
2022-09-12T22:50:30.966Z,13.87
2022-09-12T22:52:59.286Z,13.86
2022-09-12T22:55:27.788Z,14.17
2022-09-12T22:57:56.325Z,14.44
2022-09-12T23:00:27.648Z,14.51
2022-09-12T23:02:55.996Z,14.51
2022-09-12T23:05:24.243Z,14.49
2022-09-12T23:07:54.395Z,14.47
2022-09-12T23:10:23.160Z,14.52
2022-09-12T23:12:51.349Z,14.57
2022-09-12T23:15:19.752Z,14.08
2022-09-12T23:17:48.001Z,13.69
2022-09-12T23:20:16.320Z,13.46
2022-09-12T23:22:44.546Z,13.53
2022-09-12T23:25:14.819Z,14.04
2022-09-12T23:27:43.256Z,14.21
2022-09-12T23:30:13.840Z,14.43
2022-09-12T23:32:42.090Z,14.37
2022-09-12T23:35:10.455Z,14.45
2022-09-12T23:37:38.643Z,14.41
2022-09-12T23:40:08.814Z,14.20
2022-09-12T23:42:38.460Z,14.24
2022-09-12T23:45:07.798Z,14.27
2022-09-12T23:47:36.035Z,14.65
2022-09-12T23:50:05.066Z,14.49
2022-09-12T23:52:36.032Z,14.36
2022-09-12T23:55:04.502Z,14.26
2022-09-12T23:57:33.118Z,14.10
